Terminal Aerodrome Forecast
Issued by NWS

Current Version | Previous Version | Graphics & Text | Print | Product List | Glossary On
Versions: 1 2 3 4 5 6 7 8 9 10 11 12 13 14 15 16 17 18 19
687
FTUS41 KPBZ 050520
TAFHLG
TAF
KHLG 050520Z 0506/0606 VRB03KT 5SM -SHRA BR SCT008 OVC015
      TEMPO 0506/0508 2SM -SHRA BR BKN008
     FM050800 VRB03KT 5SM -SHRA OVC020
     FM052100 01005KT P6SM VCSH OVC035=

USA.gov is the U.S. government's official web portal to all federal, state and local government web resources and services.